sensor_id;sensor_type;location;lat;lon;timestamp;pressure;altitude;pressure_sealevel;temperature;humidity
16613;BME280;8419;52.358;9.752;2023-07-28T00:01:04;99655.00;;;27.21;48.73
16613;BME280;8419;52.358;9.752;2023-07-28T00:03:49;99662.00;;;27.33;48.45
16613;BME280;8419;52.358;9.752;2023-07-28T00:06:35;99664.00;;;27.38;48.29
16613;BME280;8419;52.358;9.752;2023-07-28T00:09:21;99661.00;;;27.36;48.33
16613;BME280;8419;52.358;9.752;2023-07-28T00:12:08;99659.00;;;27.31;48.40
16613;BME280;8419;52.358;9.752;2023-07-28T00:14:54;99663.00;;;27.37;48.27
16613;BME280;8419;52.358;9.752;2023-07-28T00:17:40;99665.00;;;27.39;48.18
16613;BME280;8419;52.358;9.752;2023-07-28T00:20:27;99660.00;;;27.22;48.66
16613;BME280;8419;52.358;9.752;2023-07-28T00:23:13;99648.00;;;26.85;49.40
16613;BME280;8419;52.358;9.752;2023-07-28T00:25:59;99650.00;;;27.18;48.68
16613;BME280;8419;52.358;9.752;2023-07-28T00:28:44;99644.00;;;27.19;48.60
16613;BME280;8419;52.358;9.752;2023-07-28T00:31:29;99647.00;;;27.21;48.51
16613;BME280;8419;52.358;9.752;2023-07-28T00:34:15;99658.00;;;27.26;48.45
16613;BME280;8419;52.358;9.752;2023-07-28T00:37:01;99661.00;;;27.24;48.41
16613;BME280;8419;52.358;9.752;2023-07-28T00:39:47;99664.00;;;27.23;48.44
16613;BME280;8419;52.358;9.752;2023-07-28T00:42:32;99667.00;;;27.18;48.54
16613;BME280;8419;52.358;9.752;2023-07-28T00:45:18;99673.00;;;27.14;48.61
16613;BME280;8419;52.358;9.752;2023-07-28T00:48:07;99664.00;;;27.15;48.56
16613;BME280;8419;52.358;9.752;2023-07-28T00:50:55;99668.00;;;27.16;48.60
16613;BME280;8419;52.358;9.752;2023-07-28T00:53:42;99669.00;;;27.18;48.47
16613;BME280;8419;52.358;9.752;2023-07-28T00:56:28;99677.00;;;27.18;48.46
16613;BME280;8419;52.358;9.752;2023-07-28T00:59:14;99660.00;;;27.18;48.43
16613;BME280;8419;52.358;9.752;2023-07-28T01:02:00;99673.00;;;27.17;48.43
16613;BME280;8419;52.358;9.752;2023-07-28T01:04:46;99666.00;;;27.19;48.36
16613;BME280;8419;52.358;9.752;2023-07-28T01:07:37;99668.00;;;27.22;48.29
16613;BME280;8419;52.358;9.752;2023-07-28T01:10:31;99668.00;;;27.25;48.24
16613;BME280;8419;52.358;9.752;2023-07-28T01:13:17;99662.00;;;27.23;48.24
16613;BME280;8419;52.358;9.752;2023-07-28T01:16:03;99666.00;;;27.28;48.11
16613;BME280;8419;52.358;9.752;2023-07-28T01:18:48;99658.00;;;27.21;48.23
16613;BME280;8419;52.358;9.752;2023-07-28T01:21:34;99660.00;;;27.17;48.30
16613;BME280;8419;52.358;9.752;2023-07-28T01:24:25;99661.00;;;27.16;48.30
16613;BME280;8419;52.358;9.752;2023-07-28T01:27:13;99654.00;;;27.19;48.27
16613;BME280;8419;52.358;9.752;2023-07-28T01:30:00;99651.00;;;27.23;48.14
16613;BME280;8419;52.358;9.752;2023-07-28T01:32:46;99659.00;;;27.26;48.08
16613;BME280;8419;52.358;9.752;2023-07-28T01:35:32;99658.00;;;27.21;48.26
16613;BME280;8419;52.358;9.752;2023-07-28T01:38:17;99659.00;;;27.27;48.04
16613;BME280;8419;52.358;9.752;2023-07-28T01:41:03;99659.00;;;27.23;48.12
16613;BME280;8419;52.358;9.752;2023-07-28T01:43:48;99651.00;;;27.20;48.16
16613;BME280;8419;52.358;9.752;2023-07-28T01:46:34;99660.00;;;27.06;48.41
16613;BME280;8419;52.358;9.752;2023-07-28T01:49:20;99654.00;;;27.28;47.99
16613;BME280;8419;52.358;9.752;2023-07-28T01:52:06;99650.00;;;27.05;48.51
16613;BME280;8419;52.358;9.752;2023-07-28T01:54:51;99654.00;;;27.09;48.43
16613;BME280;8419;52.358;9.752;2023-07-28T01:57:39;99664.00;;;27.11;48.32
16613;BME280;8419;52.358;9.752;2023-07-28T02:00:25;99668.00;;;27.17;48.18
16613;BME280;8419;52.358;9.752;2023-07-28T02:03:11;99663.00;;;27.14;48.22
16613;BME280;8419;52.358;9.752;2023-07-28T02:05:57;99661.00;;;27.14;48.22
16613;BME280;8419;52.358;9.752;2023-07-28T02:08:43;99660.00;;;27.16;48.20
16613;BME280;8419;52.358;9.752;2023-07-28T02:11:28;99673.00;;;27.16;48.24
16613;BME280;8419;52.358;9.752;2023-07-28T02:14:15;99655.00;;;27.16;48.18
16613;BME280;8419;52.358;9.752;2023-07-28T02:17:01;99664.00;;;27.15;48.21
16613;BME280;8419;52.358;9.752;2023-07-28T02:19:46;99660.00;;;27.09;48.32
16613;BME280;8419;52.358;9.752;2023-07-28T02:22:32;99659.00;;;27.10;48.34
16613;BME280;8419;52.358;9.752;2023-07-28T02:25:18;99656.00;;;27.15;48.24
16613;BME280;8419;52.358;9.752;2023-07-28T02:28:04;99649.00;;;27.11;48.32
16613;BME280;8419;52.358;9.752;2023-07-28T02:30:49;99653.00;;;27.18;48.13
16613;BME280;8419;52.358;9.752;2023-07-28T02:33:35;99658.00;;;27.21;48.09
16613;BME280;8419;52.358;9.752;2023-07-28T02:36:22;99657.00;;;27.17;48.15
16613;BME280;8419;52.358;9.752;2023-07-28T02:39:07;99665.00;;;27.22;48.04
16613;BME280;8419;52.358;9.752;2023-07-28T02:41:53;99654.00;;;27.16;48.16
16613;BME280;8419;52.358;9.752;2023-07-28T02:44:38;99663.00;;;27.14;48.20
16613;BME280;8419;52.358;9.752;2023-07-28T02:47:24;99663.00;;;27.12;48.24
16613;BME280;8419;52.358;9.752;2023-07-28T02:50:11;99673.00;;;27.14;48.19
16613;BME280;8419;52.358;9.752;2023-07-28T02:52:56;99671.00;;;27.16;48.18
16613;BME280;8419;52.358;9.752;2023-07-28T02:55:42;99673.00;;;27.20;48.08
16613;BME280;8419;52.358;9.752;2023-07-28T02:58:28;99685.00;;;27.24;48.00
16613;BME280;8419;52.358;9.752;2023-07-28T03:01:13;99680.00;;;27.25;47.97
16613;BME280;8419;52.358;9.752;2023-07-28T03:03:59;99681.00;;;27.27;47.91
16613;BME280;8419;52.358;9.752;2023-07-28T03:06:45;99691.00;;;27.23;48.00
16613;BME280;8419;52.358;9.752;2023-07-28T03:09:30;99686.00;;;27.18;48.12
16613;BME280;8419;52.358;9.752;2023-07-28T03:12:16;99692.00;;;27.22;48.03
16613;BME280;8419;52.358;9.752;2023-07-28T03:15:02;99682.00;;;27.19;48.10
16613;BME280;8419;52.358;9.752;2023-07-28T03:17:48;99690.00;;;27.18;48.16
16613;BME280;8419;52.358;9.752;2023-07-28T03:20:33;99681.00;;;27.17;48.15
16613;BME280;8419;52.358;9.752;2023-07-28T03:23:19;99687.00;;;27.17;48.17
16613;BME280;8419;52.358;9.752;2023-07-28T03:26:05;99690.00;;;27.16;48.16
16613;BME280;8419;52.358;9.752;2023-07-28T03:28:50;99691.00;;;27.18;48.13
16613;BME280;8419;52.358;9.752;2023-07-28T03:31:36;99691.00;;;27.18;48.10
16613;BME280;8419;52.358;9.752;2023-07-28T03:34:21;99686.00;;;27.19;48.07
16613;BME280;8419;52.358;9.752;2023-07-28T03:37:08;99691.00;;;27.15;48.15
16613;BME280;8419;52.358;9.752;2023-07-28T03:39:53;99691.00;;;27.18;48.07
16613;BME280;8419;52.358;9.752;2023-07-28T03:42:39;99696.00;;;27.18;48.07
16613;BME280;8419;52.358;9.752;2023-07-28T03:45:24;99700.00;;;27.23;47.97
16613;BME280;8419;52.358;9.752;2023-07-28T03:48:10;99705.00;;;27.23;47.92
16613;BME280;8419;52.358;9.752;2023-07-28T03:50:55;99703.00;;;27.20;47.97
16613;BME280;8419;52.358;9.752;2023-07-28T03:53:41;99700.00;;;27.23;47.93
16613;BME280;8419;52.358;9.752;2023-07-28T03:56:27;99706.00;;;27.17;48.07
16613;BME280;8419;52.358;9.752;2023-07-28T03:59:13;99705.00;;;27.19;48.03
16613;BME280;8419;52.358;9.752;2023-07-28T04:01:58;99704.00;;;27.14;48.11
16613;BME280;8419;52.358;9.752;2023-07-28T04:04:44;99706.00;;;27.19;47.99
16613;BME280;8419;52.358;9.752;2023-07-28T04:07:30;99710.00;;;27.18;48.02
16613;BME280;8419;52.358;9.752;2023-07-28T04:10:19;99700.00;;;27.25;47.90
16613;BME280;8419;52.358;9.752;2023-07-28T04:13:04;99704.00;;;27.16;48.04
16613;BME280;8419;52.358;9.752;2023-07-28T04:15:49;99708.00;;;27.31;47.72
16613;BME280;8419;52.358;9.752;2023-07-28T04:18:35;99714.00;;;27.19;47.97
16613;BME280;8419;52.358;9.752;2023-07-28T04:21:21;99712.00;;;27.24;47.90
16613;BME280;8419;52.358;9.752;2023-07-28T04:24:07;99716.00;;;27.27;47.88
16613;BME280;8419;52.358;9.752;2023-07-28T04:26:52;99711.00;;;27.30;47.81
16613;BME280;8419;52.358;9.752;2023-07-28T04:29:38;99715.00;;;27.20;48.06
16613;BME280;8419;52.358;9.752;2023-07-28T04:32:24;99713.00;;;27.28;47.90
16613;BME280;8419;52.358;9.752;2023-07-28T04:35:10;99714.00;;;27.17;48.10
16613;BME280;8419;52.358;9.752;2023-07-28T04:37:56;99717.00;;;27.24;48.08
16613;BME280;8419;52.358;9.752;2023-07-28T04:40:42;99722.00;;;27.33;47.93
16613;BME280;8419;52.358;9.752;2023-07-28T04:43:28;99714.00;;;27.42;47.74
16613;BME280;8419;52.358;9.752;2023-07-28T04:46:14;99720.00;;;27.32;47.86
16613;BME280;8419;52.358;9.752;2023-07-28T04:48:59;99725.00;;;27.42;47.76
16613;BME280;8419;52.358;9.752;2023-07-28T04:51:45;99729.00;;;27.34;47.91
16613;BME280;8419;52.358;9.752;2023-07-28T04:54:30;99728.00;;;27.39;47.86
16613;BME280;8419;52.358;9.752;2023-07-28T04:57:16;99735.00;;;27.40;47.90
16613;BME280;8419;52.358;9.752;2023-07-28T05:00:04;99738.00;;;27.30;48.03
16613;BME280;8419;52.358;9.752;2023-07-28T05:02:50;99734.00;;;27.44;47.79
16613;BME280;8419;52.358;9.752;2023-07-28T05:05:37;99741.00;;;27.36;47.98
16613;BME280;8419;52.358;9.752;2023-07-28T05:08:22;99740.00;;;27.45;47.84
16613;BME280;8419;52.358;9.752;2023-07-28T05:11:08;99750.00;;;27.47;47.75
16613;BME280;8419;52.358;9.752;2023-07-28T05:13:54;99755.00;;;27.40;47.92
16613;BME280;8419;52.358;9.752;2023-07-28T05:16:39;99751.00;;;27.48;47.71
16613;BME280;8419;52.358;9.752;2023-07-28T05:19:25;99752.00;;;27.52;47.63
16613;BME280;8419;52.358;9.752;2023-07-28T05:22:10;99757.00;;;27.58;47.45
16613;BME280;8419;52.358;9.752;2023-07-28T05:24:56;99760.00;;;27.50;47.67
16613;BME280;8419;52.358;9.752;2023-07-28T05:27:42;99759.00;;;27.48;47.73
16613;BME280;8419;52.358;9.752;2023-07-28T05:30:28;99764.00;;;27.56;47.55
16613;BME280;8419;52.358;9.752;2023-07-28T05:33:13;99762.00;;;27.54;47.51
16613;BME280;8419;52.358;9.752;2023-07-28T05:36:03;99770.00;;;27.49;47.64
16613;BME280;8419;52.358;9.752;2023-07-28T05:38:49;99779.00;;;27.39;48.00
16613;BME280;8419;52.358;9.752;2023-07-28T05:41:36;99776.00;;;27.48;47.77
16613;BME280;8419;52.358;9.752;2023-07-28T05:44:22;99779.00;;;27.42;47.79
16613;BME280;8419;52.358;9.752;2023-07-28T05:47:09;99783.00;;;27.66;47.33
16613;BME280;8419;52.358;9.752;2023-07-28T05:49:54;99785.00;;;27.73;47.12
16613;BME280;8419;52.358;9.752;2023-07-28T05:52:40;99786.00;;;27.76;47.13
16613;BME280;8419;52.358;9.752;2023-07-28T05:55:26;99782.00;;;27.77;47.14
16613;BME280;8419;52.358;9.752;2023-07-28T05:58:12;99788.00;;;27.80;47.05
16613;BME280;8419;52.358;9.752;2023-07-28T06:00:57;99783.00;;;27.82;46.99
16613;BME280;8419;52.358;9.752;2023-07-28T06:03:42;99783.00;;;27.85;46.95
16613;BME280;8419;52.358;9.752;2023-07-28T06:06:28;99786.00;;;27.89;46.94
16613;BME280;8419;52.358;9.752;2023-07-28T06:09:13;99790.00;;;27.97;46.83
16613;BME280;8419;52.358;9.752;2023-07-28T06:11:59;99782.00;;;28.03;46.78
16613;BME280;8419;52.358;9.752;2023-07-28T06:14:45;99791.00;;;28.13;46.60
16613;BME280;8419;52.358;9.752;2023-07-28T06:17:31;99796.00;;;28.00;46.86
16613;BME280;8419;52.358;9.752;2023-07-28T06:20:16;99796.00;;;27.95;47.07
16613;BME280;8419;52.358;9.752;2023-07-28T06:23:02;99801.00;;;27.85;47.33
16613;BME280;8419;52.358;9.752;2023-07-28T06:25:48;99798.00;;;27.93;47.12
16613;BME280;8419;52.358;9.752;2023-07-28T06:28:33;99805.00;;;27.84;47.26
16613;BME280;8419;52.358;9.752;2023-07-28T06:31:19;99805.00;;;27.81;47.34
16613;BME280;8419;52.358;9.752;2023-07-28T06:34:05;99813.00;;;27.61;47.79
16613;BME280;8419;52.358;9.752;2023-07-28T06:36:50;99807.00;;;27.73;47.65
16613;BME280;8419;52.358;9.752;2023-07-28T06:39:36;99808.00;;;27.78;47.57
16613;BME280;8419;52.358;9.752;2023-07-28T06:42:22;99820.00;;;28.09;46.92
16613;BME280;8419;52.358;9.752;2023-07-28T06:45:10;99823.00;;;28.08;46.92
16613;BME280;8419;52.358;9.752;2023-07-28T06:47:55;99824.00;;;28.16;46.85
16613;BME280;8419;52.358;9.752;2023-07-28T06:50:41;99822.00;;;28.04;47.11
16613;BME280;8419;52.358;9.752;2023-07-28T06:53:27;99834.00;;;28.03;47.24
16613;BME280;8419;52.358;9.752;2023-07-28T06:56:12;99827.00;;;27.94;47.46
16613;BME280;8419;52.358;9.752;2023-07-28T06:58:59;99833.00;;;27.92;47.58
16613;BME280;8419;52.358;9.752;2023-07-28T07:01:45;99832.00;;;27.94;47.48
16613;BME280;8419;52.358;9.752;2023-07-28T07:04:30;99845.00;;;28.02;47.41
16613;BME280;8419;52.358;9.752;2023-07-28T07:07:16;99842.00;;;28.06;47.35
16613;BME280;8419;52.358;9.752;2023-07-28T07:10:02;99847.00;;;27.98;47.65
16613;BME280;8419;52.358;9.752;2023-07-28T07:12:48;99843.00;;;28.13;47.43
16613;BME280;8419;52.358;9.752;2023-07-28T07:15:34;99851.00;;;28.22;47.22
16613;BME280;8419;52.358;9.752;2023-07-28T07:18:20;99847.00;;;28.32;47.12
16613;BME280;8419;52.358;9.752;2023-07-28T07:21:05;99854.00;;;28.40;46.99
16613;BME280;8419;52.358;9.752;2023-07-28T07:23:51;99858.00;;;28.42;46.91
16613;BME280;8419;52.358;9.752;2023-07-28T07:26:36;99859.00;;;28.46;46.88
16613;BME280;8419;52.358;9.752;2023-07-28T07:29:22;99859.00;;;28.43;46.86
16613;BME280;8419;52.358;9.752;2023-07-28T07:32:08;99857.00;;;28.60;46.54
16613;BME280;8419;52.358;9.752;2023-07-28T07:34:55;99854.00;;;28.73;46.43
16613;BME280;8419;52.358;9.752;2023-07-28T07:37:41;99866.00;;;28.93;46.08
16613;BME280;8419;52.358;9.752;2023-07-28T07:40:27;99870.00;;;29.07;45.82
16613;BME280;8419;52.358;9.752;2023-07-28T07:43:13;99860.00;;;29.08;45.77
16613;BME280;8419;52.358;9.752;2023-07-28T07:46:04;99861.00;;;29.34;45.50
16613;BME280;8419;52.358;9.752;2023-07-28T07:48:49;99866.00;;;29.58;45.06
16613;BME280;8419;52.358;9.752;2023-07-28T07:51:35;99864.00;;;29.71;44.75
16613;BME280;8419;52.358;9.752;2023-07-28T07:54:20;99863.00;;;29.75;44.28
16613;BME280;8419;52.358;9.752;2023-07-28T07:57:08;99876.00;;;29.84;44.38
16613;BME280;8419;52.358;9.752;2023-07-28T07:59:53;99870.00;;;29.70;44.32
16613;BME280;8419;52.358;9.752;2023-07-28T08:02:39;99872.00;;;29.70;44.07
16613;BME280;8419;52.358;9.752;2023-07-28T08:05:24;99874.00;;;29.78;43.88
16613;BME280;8419;52.358;9.752;2023-07-28T08:08:11;99881.00;;;29.85;43.74
16613;BME280;8419;52.358;9.752;2023-07-28T08:10:57;99890.00;;;29.98;43.61
16613;BME280;8419;52.358;9.752;2023-07-28T08:13:43;99879.00;;;29.97;43.47
16613;BME280;8419;52.358;9.752;2023-07-28T08:16:29;99883.00;;;30.13;43.34
16613;BME280;8419;52.358;9.752;2023-07-28T08:19:14;99890.00;;;30.21;43.06
16613;BME280;8419;52.358;9.752;2023-07-28T08:22:00;99889.00;;;30.23;43.15
16613;BME280;8419;52.358;9.752;2023-07-28T08:24:48;99887.00;;;30.43;42.60
16613;BME280;8419;52.358;9.752;2023-07-28T08:27:33;99890.00;;;30.68;42.33
16613;BME280;8419;52.358;9.752;2023-07-28T08:30:20;99903.00;;;30.88;42.11
16613;BME280;8419;52.358;9.752;2023-07-28T08:33:06;99903.00;;;31.01;41.71
16613;BME280;8419;52.358;9.752;2023-07-28T08:35:51;99900.00;;;30.92;41.82
16613;BME280;8419;52.358;9.752;2023-07-28T08:38:37;99900.00;;;30.83;41.93
16613;BME280;8419;52.358;9.752;2023-07-28T08:41:23;99903.00;;;31.03;41.54
16613;BME280;8419;52.358;9.752;2023-07-28T08:44:09;99902.00;;;30.87;41.65
16613;BME280;8419;52.358;9.752;2023-07-28T08:46:54;99910.00;;;30.84;41.53
16613;BME280;8419;52.358;9.752;2023-07-28T08:49:40;99911.00;;;30.86;41.48
16613;BME280;8419;52.358;9.752;2023-07-28T08:52:26;99908.00;;;30.84;41.43
16613;BME280;8419;52.358;9.752;2023-07-28T08:55:12;99917.00;;;30.93;41.18
16613;BME280;8419;52.358;9.752;2023-07-28T08:58:14;99920.00;;;30.99;40.89
16613;BME280;8419;52.358;9.752;2023-07-28T09:01:00;99909.00;;;31.03;40.71
16613;BME280;8419;52.358;9.752;2023-07-28T09:03:46;99911.00;;;31.09;40.64
16613;BME280;8419;52.358;9.752;2023-07-28T09:06:34;99913.00;;;31.13;40.34
16613;BME280;8419;52.358;9.752;2023-07-28T09:09:21;99917.00;;;31.30;39.96
16613;BME280;8419;52.358;9.752;2023-07-28T09:12:08;99919.00;;;31.33;39.88
16613;BME280;8419;52.358;9.752;2023-07-28T09:14:57;99909.00;;;31.45;39.60
16613;BME280;8419;52.358;9.752;2023-07-28T09:17:43;99929.00;;;31.32;39.80
16613;BME280;8419;52.358;9.752;2023-07-28T09:20:34;99923.00;;;31.38;39.75
16613;BME280;8419;52.358;9.752;2023-07-28T09:23:28;99926.00;;;31.67;39.19
16613;BME280;8419;52.358;9.752;2023-07-28T09:26:14;99928.00;;;31.63;38.87
16613;BME280;8419;52.358;9.752;2023-07-28T09:29:00;99926.00;;;32.00;38.48
16613;BME280;8419;52.358;9.752;2023-07-28T09:31:46;99924.00;;;32.04;38.30
16613;BME280;8419;52.358;9.752;2023-07-28T09:34:34;99932.00;;;31.97;38.29
16613;BME280;8419;52.358;9.752;2023-07-28T09:37:19;99926.00;;;31.98;38.47
16613;BME280;8419;52.358;9.752;2023-07-28T09:40:07;99932.00;;;32.34;37.83
16613;BME280;8419;52.358;9.752;2023-07-28T09:42:55;99915.00;;;32.20;37.91
16613;BME280;8419;52.358;9.752;2023-07-28T09:45:40;99923.00;;;32.03;37.97
16613;BME280;8419;52.358;9.752;2023-07-28T09:48:31;99928.00;;;32.09;37.69
16613;BME280;8419;52.358;9.752;2023-07-28T09:51:18;99926.00;;;31.87;37.93
16613;BME280;8419;52.358;9.752;2023-07-28T09:54:12;99923.00;;;32.10;37.63
16613;BME280;8419;52.358;9.752;2023-07-28T09:56:58;99929.00;;;32.14;37.60
16613;BME280;8419;52.358;9.752;2023-07-28T09:59:46;99937.00;;;32.45;37.15
16613;BME280;8419;52.358;9.752;2023-07-28T10:02:32;99940.00;;;32.78;36.57
16613;BME280;8419;52.358;9.752;2023-07-28T10:05:18;99942.00;;;32.69;36.54
16613;BME280;8419;52.358;9.752;2023-07-28T10:08:06;99941.00;;;32.71;36.24
16613;BME280;8419;52.358;9.752;2023-07-28T10:10:52;99939.00;;;32.56;36.15
16613;BME280;8419;52.358;9.752;2023-07-28T10:13:42;99939.00;;;32.53;36.25
16613;BME280;8419;52.358;9.752;2023-07-28T10:16:32;99949.00;;;32.72;36.13
16613;BME280;8419;52.358;9.752;2023-07-28T10:19:24;99946.00;;;32.67;36.22
16613;BME280;8419;52.358;9.752;2023-07-28T10:22:11;99942.00;;;32.52;36.41
16613;BME280;8419;52.358;9.752;2023-07-28T10:25:01;99941.00;;;32.54;36.20
16613;BME280;8419;52.358;9.752;2023-07-28T10:27:46;99941.00;;;32.64;36.07
16613;BME280;8419;52.358;9.752;2023-07-28T10:30:37;99947.00;;;32.81;35.99
16613;BME280;8419;52.358;9.752;2023-07-28T10:33:34;99951.00;;;32.75;36.09
16613;BME280;8419;52.358;9.752;2023-07-28T10:36:33;99959.00;;;32.78;36.00
16613;BME280;8419;52.358;9.752;2023-07-28T10:39:19;99963.00;;;32.64;36.09
16613;BME280;8419;52.358;9.752;2023-07-28T10:42:06;99952.00;;;32.58;35.92
16613;BME280;8419;52.358;9.752;2023-07-28T10:44:53;99964.00;;;32.68;35.97
16613;BME280;8419;52.358;9.752;2023-07-28T10:47:39;99963.00;;;32.79;35.71
16613;BME280;8419;52.358;9.752;2023-07-28T10:50:27;99959.00;;;32.72;35.69
16613;BME280;8419;52.358;9.752;2023-07-28T10:53:14;99961.00;;;32.36;36.04
16613;BME280;8419;52.358;9.752;2023-07-28T10:56:01;99956.00;;;32.23;36.01
16613;BME280;8419;52.358;9.752;2023-07-28T10:58:47;99967.00;;;32.40;35.88
16613;BME280;8419;52.358;9.752;2023-07-28T11:01:41;99964.00;;;32.61;35.48
16613;BME280;8419;52.358;9.752;2023-07-28T11:04:27;99963.00;;;32.93;35.08
16613;BME280;8419;52.358;9.752;2023-07-28T11:07:12;99962.00;;;33.11;34.80
16613;BME280;8419;52.358;9.752;2023-07-28T11:10:00;99957.00;;;33.17;34.64
16613;BME280;8419;52.358;9.752;2023-07-28T11:12:50;99961.00;;;33.13;34.67
16613;BME280;8419;52.358;9.752;2023-07-28T11:15:36;99973.00;;;33.20;34.67
16613;BME280;8419;52.358;9.752;2023-07-28T11:18:21;99973.00;;;33.23;34.35
16613;BME280;8419;52.358;9.752;2023-07-28T11:21:07;99973.00;;;33.28;34.49
16613;BME280;8419;52.358;9.752;2023-07-28T11:23:52;99973.00;;;33.31;34.32
16613;BME280;8419;52.358;9.752;2023-07-28T11:26:39;99963.00;;;33.31;34.26
16613;BME280;8419;52.358;9.752;2023-07-28T11:29:25;99969.00;;;33.16;34.21
16613;BME280;8419;52.358;9.752;2023-07-28T11:32:12;99971.00;;;33.19;34.21
16613;BME280;8419;52.358;9.752;2023-07-28T11:35:04;99959.00;;;33.15;34.21
16613;BME280;8419;52.358;9.752;2023-07-28T11:37:52;99951.00;;;33.12;34.23
16613;BME280;8419;52.358;9.752;2023-07-28T11:40:39;99958.00;;;33.16;34.14
16613;BME280;8419;52.358;9.752;2023-07-28T11:43:26;99951.00;;;33.15;34.22
16613;BME280;8419;52.358;9.752;2023-07-28T11:46:37;99954.00;;;33.36;34.26
16613;BME280;8419;52.358;9.752;2023-07-28T11:49:24;99963.00;;;33.96;33.68
16613;BME280;8419;52.358;9.752;2023-07-28T11:52:10;99973.00;;;34.11;33.33
16613;BME280;8419;52.358;9.752;2023-07-28T11:54:56;99968.00;;;34.44;32.73
16613;BME280;8419;52.358;9.752;2023-07-28T11:57:43;99972.00;;;34.72;32.27
16613;BME280;8419;52.358;9.752;2023-07-28T12:00:32;99960.00;;;34.98;32.25
16613;BME280;8419;52.358;9.752;2023-07-28T12:03:19;99973.00;;;35.38;31.57
16613;BME280;8419;52.358;9.752;2023-07-28T12:06:06;99969.00;;;35.42;31.55
16613;BME280;8419;52.358;9.752;2023-07-28T12:09:06;99961.00;;;35.47;31.41
16613;BME280;8419;52.358;9.752;2023-07-28T12:11:53;99966.00;;;35.54;31.22
16613;BME280;8419;52.358;9.752;2023-07-28T12:14:39;99972.00;;;35.29;31.27
16613;BME280;8419;52.358;9.752;2023-07-28T12:17:25;99972.00;;;35.40;31.28
16613;BME280;8419;52.358;9.752;2023-07-28T12:20:13;99975.00;;;35.86;30.59
16613;BME280;8419;52.358;9.752;2023-07-28T12:22:59;99965.00;;;35.93;30.51
16613;BME280;8419;52.358;9.752;2023-07-28T12:25:45;99968.00;;;35.75;30.39
16613;BME280;8419;52.358;9.752;2023-07-28T12:28:31;99975.00;;;35.76;29.82
16613;BME280;8419;52.358;9.752;2023-07-28T12:31:17;99978.00;;;35.68;29.96
16613;BME280;8419;52.358;9.752;2023-07-28T12:34:03;99985.00;;;35.63;30.01
16613;BME280;8419;52.358;9.752;2023-07-28T12:36:48;99991.00;;;35.87;29.96
16613;BME280;8419;52.358;9.752;2023-07-28T12:39:37;99984.00;;;36.47;28.99
16613;BME280;8419;52.358;9.752;2023-07-28T12:42:24;99974.00;;;36.66;28.98
16613;BME280;8419;52.358;9.752;2023-07-28T12:45:10;99996.00;;;37.04;28.30
16613;BME280;8419;52.358;9.752;2023-07-28T12:47:56;99994.00;;;37.55;27.87
16613;BME280;8419;52.358;9.752;2023-07-28T12:50:42;100005.00;;;37.57;27.55
16613;BME280;8419;52.358;9.752;2023-07-28T12:53:27;100000.00;;;36.97;28.26
16613;BME280;8419;52.358;9.752;2023-07-28T12:56:13;100017.00;;;36.43;28.71
16613;BME280;8419;52.358;9.752;2023-07-28T12:58:58;100009.00;;;36.54;28.51
16613;BME280;8419;52.358;9.752;2023-07-28T13:01:44;100004.00;;;36.61;28.34
16613;BME280;8419;52.358;9.752;2023-07-28T13:04:29;100002.00;;;36.71;28.40
16613;BME280;8419;52.358;9.752;2023-07-28T13:07:15;100011.00;;;36.55;28.68
16613;BME280;8419;52.358;9.752;2023-07-28T13:10:00;100022.00;;;36.41;29.01
16613;BME280;8419;52.358;9.752;2023-07-28T13:12:47;100013.00;;;35.89;29.43
16613;BME280;8419;52.358;9.752;2023-07-28T13:15:32;100029.00;;;35.32;29.98
16613;BME280;8419;52.358;9.752;2023-07-28T13:18:18;100024.00;;;34.95;30.42
16613;BME280;8419;52.358;9.752;2023-07-28T13:21:04;100022.00;;;34.91;30.54
16613;BME280;8419;52.358;9.752;2023-07-28T13:23:52;100021.00;;;35.65;29.83
16613;BME280;8419;52.358;9.752;2023-07-28T13:26:37;100029.00;;;36.25;29.15
16613;BME280;8419;52.358;9.752;2023-07-28T13:29:23;100024.00;;;36.75;28.46
16613;BME280;8419;52.358;9.752;2023-07-28T13:32:17;100012.00;;;36.20;29.04
16613;BME280;8419;52.358;9.752;2023-07-28T13:35:05;100017.00;;;36.15;29.41
16613;BME280;8419;52.358;9.752;2023-07-28T13:37:50;100012.00;;;37.22;28.31
16613;BME280;8419;52.358;9.752;2023-07-28T13:40:36;100011.00;;;38.84;26.61
16613;BME280;8419;52.358;9.752;2023-07-28T13:43:21;100009.00;;;40.22;25.19
16613;BME280;8419;52.358;9.752;2023-07-28T13:46:07;100008.00;;;40.74;24.35
16613;BME280;8419;52.358;9.752;2023-07-28T13:48:53;100008.00;;;40.86;24.09
16613;BME280;8419;52.358;9.752;2023-07-28T13:51:40;100008.00;;;40.91;24.00
16613;BME280;8419;52.358;9.752;2023-07-28T13:54:26;100012.00;;;41.46;23.39
16613;BME280;8419;52.358;9.752;2023-07-28T13:57:11;100013.00;;;42.45;22.64
16613;BME280;8419;52.358;9.752;2023-07-28T13:59:57;100012.00;;;42.45;22.33
16613;BME280;8419;52.358;9.752;2023-07-28T14:02:43;100012.00;;;42.62;21.97
16613;BME280;8419;52.358;9.752;2023-07-28T14:05:29;100017.00;;;42.04;22.29
16613;BME280;8419;52.358;9.752;2023-07-28T14:08:14;100013.00;;;41.67;22.69
16613;BME280;8419;52.358;9.752;2023-07-28T14:11:00;100018.00;;;41.60;22.85
16613;BME280;8419;52.358;9.752;2023-07-28T14:13:45;100012.00;;;42.45;22.21
16613;BME280;8419;52.358;9.752;2023-07-28T14:16:31;100011.00;;;42.05;22.33
16613;BME280;8419;52.358;9.752;2023-07-28T14:19:16;99997.00;;;41.22;22.77
16613;BME280;8419;52.358;9.752;2023-07-28T14:22:02;100002.00;;;40.48;23.44
16613;BME280;8419;52.358;9.752;2023-07-28T14:24:47;100001.00;;;39.73;24.24
16613;BME280;8419;52.358;9.752;2023-07-28T14:27:32;100004.00;;;39.32;24.71
16613;BME280;8419;52.358;9.752;2023-07-28T14:30:18;99993.00;;;39.68;24.43
16613;BME280;8419;52.358;9.752;2023-07-28T14:33:04;99987.00;;;40.18;23.97
16613;BME280;8419;52.358;9.752;2023-07-28T14:35:50;99997.00;;;40.28;23.90
16613;BME280;8419;52.358;9.752;2023-07-28T14:38:35;99994.00;;;40.39;23.83
16613;BME280;8419;52.358;9.752;2023-07-28T14:41:21;99992.00;;;40.99;23.21
16613;BME280;8419;52.358;9.752;2023-07-28T14:44:06;99986.00;;;42.08;22.32
16613;BME280;8419;52.358;9.752;2023-07-28T14:46:52;99989.00;;;42.12;22.14
16613;BME280;8419;52.358;9.752;2023-07-28T14:49:38;99990.00;;;41.40;22.82
16613;BME280;8419;52.358;9.752;2023-07-28T14:52:23;99990.00;;;40.46;23.44